Weather at Amherst Airport [CLOSED]

Public forecast

Using degrees Celsius for public forecast. Weather courtesy of forecast.io.

Closest aviation weather report (METAR) to Amherst Airport

Closest report is Greater Moncton Roméo LeBlanc International Airport, 25.7 nm (47.6 km) NW. Retrieved 2020/09/19 12:00 UTC (27 minutes ago):

CYQM 191200Z 32010KT 15SM FEW050 07/03 A3012 RMK SC1 SLP202

Closest aviation forecast (TAF) to Amherst Airport

Closest forecast is Greater Moncton Roméo LeBlanc International Airport, 25.7 nm (47.6 km) NW. Retrieved 2020/09/19 12:42 UTC (0 seconds ago):

TAF CYQM 191138Z 1912/2012 30007KT P6SM FEW050 FM191600 34010KT P6SM SCT080 BECMG 1916/1918 04010KT BECMG 1922/1924 VRB03KT FM200300 VRB03KT P6SM FEW020 BKN060 TEMPO 2003/2009 P6SM -SHRA FM200900 29007KT P6SM FEW020 SCT060 RMK NXT FCST BY 191800Z